LEIB/IBZ METAR and TAF weather

Enter ICAO airport designator
Station Type Date Time Source
LEIB METAR 2019/11/22 01:00 UTC NOAA

LEIB 220100Z AUTO 24008KT 9999 -SHRA FEW012/// ///TCU 15/14 Q1008


Station Type Date Time Source
LEIB Decoded METAR 2019/11/22 01:00 UTC NOAA

Ibiza / Es Codola, Spain (LEIB) 38-52N 001-23E 12M
Nov 21, 2019 - 08:00 PM EST / 2019.11.22 0100 UTC
Wind: from the WSW (240 degrees) at 9 MPH (8 KT):0
Visibility: greater than 7 mile(s):0
Sky conditions: mostly clear
Weather: light rain showers; Towering cumulus clouds observed
Temperature: 59 F (15 C)
Dew Point: 57 F (14 C)
Relative Humidity: 93%
Pressure (altimeter): 29.77 in. Hg (1008 hPa)
ob: LEIB 220100Z AUTO 24008KT 9999 -SHRA FEW012/// ///TCU 15/14 Q1008
cycle: 1

Station Type Date Time Source
LEIB TAF 2019/11/21 21:27 UTC NOAA

TAF TAF LEIB 212000Z 2121/2221 22011KT 9999 SCT020 TX17/2212Z TN11/2206Z PROB40
TEMPO 2200/2208 4000 RA BKN014 PROB30
TEMPO 2200/2204 2000 TSRA FEW020CB
BECMG 2214/2216 22021KT
TEMPO 2217/2221 22021G31KT 3000 SHRA SCT020CB

Example: see airport list